Flight Track Log - Related Links

Times and Time Zones

All times are in EDT time to prevent confusion due to time zone crossing. See the IFL471 flight status page for this flight to view local times or setup timezone preferences in your user account.

Time Position Orientation Groundspeed Altitude Reporting Facility
EDT Latitude Longitude Course Direction KTS MPH feet Rate Location/Type
Fri 05:39:14 PM 42.6622 -83.4464 322° Northwest 160 184 1,900  Level Cleveland Center
Fri 05:41:02 PM 42.7292 -83.5172 65° Northeast 295 339 5,100 2,214 Climbing Cleveland Center
Fri 05:42:02 PM 42.7606 -83.4253 63° Northeast 237 273 8,100 2,550 Climbing Cleveland Center
Fri 05:43:02 PM 42.7986 -83.3253 357° North 259 298 10,200 2,200 Climbing Cleveland Center
Fri 05:44:02 PM 42.8881 -83.3319 North 300 345 12,500 2,000 Climbing Cleveland Center
Fri 05:45:02 PM 42.9839 -83.3306 North 321 369 14,200 1,650 Climbing Cleveland Center
Fri 05:46:02 PM 43.0819 -83.3233 356° North 348 400 15,800 1,450 Climbing Cleveland Center
Fri 05:47:02 PM 43.1797 -83.3333 328° Northwest 353 406 17,100 1,550 Climbing Cleveland Center
Fri 05:48:02 PM 43.2472 -83.3906 312° West 322 371 18,900 1,450 Climbing Cleveland Center
Fri 05:49:02 PM 43.3033 -83.4758 311° West 300 345 20,000 1,350 Climbing Cleveland Center
Fri 05:50:02 PM 43.3617 -83.5672 312° West 300 345 21,600 1,800 Climbing Cleveland Center
Fri 05:51:02 PM 43.4217 -83.6586 313° West 323 372 23,600 1,700 Climbing Cleveland Center
Fri 05:52:02 PM 43.4858 -83.7536 313° West 330 380 25,000 1,251 Climbing Cleveland Center
Fri 05:54:33 PM 43.6472 -83.9914 312° West 344 396 28,000 910 Climbing Minneapolis Center
Fri 05:55:33 PM 43.7217 -84.1058 316° Northwest 365 420 28,200 100 Climbing Minneapolis Center
Fri 05:56:33 PM 43.8064 -84.2194 331° Northwest 399 459 28,200 -100 Level Minneapolis Center
Fri 05:57:33 PM 43.9136 -84.3036 327° Northwest 428 493 28,000 -100 Descending Minneapolis Center
Fri 05:58:33 PM 44.0086 -84.3897 312° West 428 493 28,000 50 Level Minneapolis Center
Fri 05:59:33 PM 44.0825 -84.5031 318° Northwest 405 466 28,100 101 Climbing Minneapolis Center
Fri 06:00:32 PM 44.1658 -84.6061 314° West 405 466 28,200 -50 Climbing Minneapolis Center
Fri 06:01:32 PM 44.2436 -84.7192 301° West 405 466 28,000 -100 Descending Minneapolis Center
Fri 06:02:32 PM 44.2975 -84.8447 293° West 398 458 28,000 50 Level Minneapolis Center
Fri 06:03:32 PM 44.3364 -84.9728 297° West 378 435 28,100 50 Climbing Minneapolis Center
Fri 06:04:33 PM 44.3839 -85.1028 314° West 372 428 28,100 50 Level Minneapolis Center
Fri 06:05:33 PM 44.4608 -85.2139 311° West 372 428 28,200  Climbing Minneapolis Center
Fri 06:06:32 PM 44.5319 -85.3292 304° West 388 447 28,100  Descending Minneapolis Center
Fri 06:07:32 PM 44.5911 -85.4525 309° West 388 447 28,200 -100 Climbing Minneapolis Center
Fri 06:08:32 PM 44.6578 -85.5689 356° North 388 447 27,900 -198 Descending Minneapolis Center
Fri 06:09:33 PM 44.7797 -85.5814 60° Northeast 388 447 27,800 50 Descending Minneapolis Center
Fri 06:10:33 PM 44.8439 -85.4256 127° Southeast 334 384 28,000 200 Climbing Minneapolis Center
Fri 06:11:33 PM 44.7764 -85.3003 150° Southeast 260 299 28,200 100 Climbing Minneapolis Center
Fri 06:12:33 PM 44.6875 -85.2281 150° Southeast 286 329 28,200 -50 Level Minneapolis Center
Fri 06:13:32 PM 44.5986 -85.1561 149° Southeast 333 383 28,100 -50 Descending Minneapolis Center
Fri 06:14:33 PM 44.5097 -85.0814 150° Southeast 355 409 28,100  Level Minneapolis Center
Fri 06:15:33 PM 44.4183 -85.0072 150° Southeast 369 425 28,100  Level Minneapolis Center
Fri 06:16:33 PM 44.3294 -84.9361 151° Southeast 374 430 28,100 -900 Level Minneapolis Center
Fri 06:18:33 PM 44.1519 -84.7997 151° Southeast 374 430 25,400 -1,877 Descending Minneapolis Center
Fri 06:19:32 PM 44.0631 -84.7319 150° Southeast 379 436 22,500 -1,977 Descending Minneapolis Center
Fri 06:21:26 PM 43.8850 -84.5894 153° Southeast 368 423 19,700 -1,103 Descending Cleveland Center
Fri 06:22:26 PM 43.7917 -84.5231 150° Southeast 373 429 19,300 -1,450 Descending Cleveland Center
Fri 06:23:26 PM 43.7042 -84.4542 149° Southeast 373 429 16,800 -2,800 Descending Cleveland Center
Fri 06:24:26 PM 43.6250 -84.3889 151° Southeast 354 407 13,700 -2,750 Descending Cleveland Center
Fri 06:25:26 PM 43.5439 -84.3267 146° Southeast 340 391 11,300 -1,300 Descending Cleveland Center
Fri 06:26:26 PM 43.4789 -84.2653 149° Southeast 334 384 11,100 -50 Descending Cleveland Center
Fri 06:27:26 PM 43.3958 -84.1975 148° Southeast 329 379 11,200 -150 Climbing Cleveland Center
Fri 06:28:26 PM 43.3186 -84.1303 148° Southeast 329 379 10,800 -450 Descending Cleveland Center
Fri 06:29:26 PM 43.2433 -84.0661 150° Southeast 329 379 10,300 -1,250 Descending Cleveland Center
Fri 06:30:26 PM 43.1742 -84.0108 148° Southeast 305 351 8,300 -2,200 Descending Cleveland Center
Fri 06:31:26 PM 43.1092 -83.9561 148° Southeast 287 330 5,900 -1,550 Descending Cleveland Center
Fri 06:32:26 PM 43.0522 -83.9075 148° Southeast 256 295 5,200 -350 Descending Cleveland Center
Fri 06:33:26 PM 42.9911 -83.8561 150° Southeast 250 288 5,200 -100 Level Cleveland Center
Fri 06:34:26 PM 42.9258 -83.8044 148° Southeast 244 281 5,000 -125 Descending Cleveland Center
Fri 06:35:02 PM 42.8933 -83.7772 141° Southeast 238 274 5,000 58 Level Cleveland Center
Fri 06:36:10 PM 42.8344 -83.7119 120° Southeast 243 280 5,100 -503 Climbing Cleveland Center
Fri 06:37:25 PM 42.7897 -83.6078 119° Southeast 271 312 3,800 -887 Descending FAA TRACON SMA TRACON (SMA)
Fri 06:38:05 PM 42.7678 -83.5536 102° East 250 288 3,400 -525 Descending FAA TRACON SMA TRACON (SMA)
Fri 06:38:45 PM 42.7581 -83.4908 97° East 243 280 3,100 -380 Descending FAA TRACON SMA TRACON (SMA)
Fri 06:39:24 PM 42.7531 -83.4322 91° East 238 274 2,900  Descending FAA TRACON SMA TRACON (SMA)
Fri 06:40:04 PM 42.7525 -83.3753 89° East 232 267 3,100 75 Climbing FAA TRACON SMA TRACON (SMA)
Fri 06:40:44 PM 42.7536 -83.3100 99° East 247 284 3,000  Descending FAA TRACON SMA TRACON (SMA)
Fri 06:41:44 PM 42.7439 -83.2225 163° South 253 291 3,100  Climbing FAA TRACON SMA TRACON (SMA)
Fri 06:42:25 PM 42.7008 -83.2044 217° Southwest 225 259 3,000  Descending FAA TRACON SMA TRACON (SMA)
Fri 06:43:05 PM 42.6758 -83.2297 253° West 173 199 3,100 -375 Climbing FAA TRACON SMA TRACON (SMA)
Fri 06:43:45 PM 42.6678 -83.2656 271° West 152 175 2,500 -600 Descending FAA TRACON SMA TRACON (SMA)
Fri 06:44:25 PM 42.6681 -83.2997 267° West 132 152 2,300 -532 Descending FAA TRACON SMA TRACON (SMA)
Fri 06:45:04 PM 42.6667 -83.3344 267° West 137 158 1,800 -769 Descending FAA TRACON SMA TRACON (SMA)

Login

Don't have an account? Register now (free) for customized features, flight alerts, and more!